createdAt,value
2022-11-05T00:15:08.686Z,1016.03
2022-11-05T00:43:34.902Z,1016.16
2022-11-05T01:12:03.160Z,1016.42
2022-11-05T01:40:32.209Z,1016.57
2022-11-05T02:09:00.037Z,1016.66
2022-11-05T02:37:29.802Z,1016.81
2022-11-05T03:05:57.074Z,1017.05
2022-11-05T03:34:25.509Z,1017.29
2022-11-05T04:02:54.778Z,1017.69
2022-11-05T04:31:22.936Z,1018.05
2022-11-05T04:59:52.022Z,1018.39
2022-11-05T05:28:22.048Z,1018.65
2022-11-05T05:56:50.129Z,1019.09
2022-11-05T06:25:21.586Z,1019.36
2022-11-05T06:53:56.926Z,1019.9
2022-11-05T07:22:30.629Z,1020.28
2022-11-05T07:51:01.468Z,1020.69
2022-11-05T08:19:30.724Z,1020.96
2022-11-05T08:47:57.656Z,1021.33
2022-11-05T09:16:29.218Z,1021.49
2022-11-05T09:45:00.541Z,1021.66
2022-11-05T10:13:31.801Z,1021.85
2022-11-05T10:42:01.618Z,1022.14
2022-11-05T11:10:31.591Z,1022.07
2022-11-05T11:38:58.972Z,1022.03
2022-11-05T12:07:28.803Z,1022.06
2022-11-05T12:35:58.974Z,1022.04
2022-11-05T13:04:30.062Z,1021.97
2022-11-05T13:33:02.950Z,1021.87
2022-11-05T14:01:36.701Z,1021.91
2022-11-05T14:30:04.791Z,1021.89
2022-11-05T14:58:31.841Z,1021.92
2022-11-05T15:27:04.640Z,1021.92
2022-11-05T15:55:34.618Z,1022.11
2022-11-05T16:24:05.686Z,1022.22
2022-11-05T16:52:38.022Z,1022.33
2022-11-05T17:21:06.450Z,1022.41
2022-11-05T17:49:37.996Z,1022.54
2022-11-05T18:18:09.758Z,1022.6
2022-11-05T18:46:59.057Z,1022.79
2022-11-05T19:15:05.016Z,1022.76
2022-11-05T19:43:35.920Z,1022.82
2022-11-05T20:12:05.839Z,1022.82
2022-11-05T20:40:35.188Z,1022.98
2022-11-05T21:09:02.117Z,1022.89
2022-11-05T21:37:29.788Z,1023.11
2022-11-05T22:06:00.378Z,1022.88
2022-11-05T22:34:30.953Z,1022.97
2022-11-05T23:03:00.623Z,1022.74
2022-11-05T23:31:25.196Z,1022.35
2022-11-05T23:59:54.998Z,1022
